createdAt,value
2023-05-18T00:02:21.821Z,2.75
2023-05-18T00:04:51.311Z,2.25
2023-05-18T00:07:19.273Z,1.75
2023-05-18T00:09:47.578Z,1.75
2023-05-18T00:12:15.602Z,1.75
2023-05-18T00:14:43.565Z,1.75
2023-05-18T00:17:11.598Z,2.00
2023-05-18T00:19:40.677Z,1.75
2023-05-18T00:22:10.143Z,2.75
2023-05-18T00:24:38.121Z,2.50
2023-05-18T00:27:06.158Z,2.25
2023-05-18T00:29:34.137Z,2.25
2023-05-18T00:32:02.267Z,2.25
2023-05-18T00:34:30.326Z,1.75
2023-05-18T00:36:58.245Z,1.75
2023-05-18T00:39:27.646Z,2.00
2023-05-18T00:41:55.596Z,2.00
2023-05-18T00:44:23.848Z,2.75
2023-05-18T00:46:51.843Z,2.50
2023-05-18T00:49:19.796Z,2.00
2023-05-18T00:51:47.828Z,2.75
2023-05-18T00:54:16.059Z,2.75
2023-05-18T00:56:46.266Z,1.75
2023-05-18T00:59:14.270Z,2.00
2023-05-18T01:01:44.878Z,2.50
2023-05-18T01:04:14.626Z,2.00
2023-05-18T01:06:42.923Z,1.75
2023-05-18T01:09:12.258Z,2.50
2023-05-18T01:11:52.908Z,1.75
2023-05-18T01:14:27.512Z,2.00
2023-05-18T01:20:12.648Z,2.25
2023-05-18T01:22:50.588Z,1.75
2023-05-18T01:25:23.450Z,2.25
2023-05-18T01:27:52.777Z,2.75
2023-05-18T01:30:20.778Z,2.25
2023-05-18T01:32:48.779Z,2.00
2023-05-18T01:35:17.046Z,2.00
2023-05-18T01:37:44.955Z,2.25
2023-05-18T01:40:13.271Z,2.75
2023-05-18T01:42:44.412Z,1.75
2023-05-18T01:45:16.631Z,1.75
2023-05-18T01:47:44.750Z,1.75
2023-05-18T01:50:14.662Z,2.25
2023-05-18T01:52:44.837Z,1.75
2023-05-18T01:55:13.118Z,1.75
2023-05-18T01:57:41.830Z,2.50
2023-05-18T02:00:11.883Z,2.75
2023-05-18T02:02:41.260Z,2.50
2023-05-18T02:05:12.449Z,2.75
2023-05-18T02:07:40.849Z,2.75
2023-05-18T02:10:09.788Z,2.75
2023-05-18T02:12:37.714Z,2.75
2023-05-18T02:15:09.055Z,2.25
2023-05-18T02:17:37.261Z,2.75
2023-05-18T02:20:08.590Z,2.00
2023-05-18T02:22:36.555Z,2.75
2023-05-18T02:25:05.104Z,2.75
2023-05-18T02:27:33.556Z,1.75
2023-05-18T02:30:04.242Z,2.75
2023-05-18T02:32:33.019Z,1.75
2023-05-18T02:35:02.519Z,2.00
2023-05-18T02:37:34.448Z,2.25
2023-05-18T02:40:02.404Z,2.75
2023-05-18T02:42:30.338Z,3.00
2023-05-18T02:44:58.756Z,2.00
2023-05-18T02:47:26.743Z,2.50
2023-05-18T02:49:54.760Z,2.75
2023-05-18T02:52:22.765Z,2.75
2023-05-18T02:54:54.829Z,1.75
2023-05-18T02:57:23.089Z,2.00
2023-05-18T02:59:51.026Z,2.50
2023-05-18T03:02:19.068Z,2.75
2023-05-18T03:04:49.372Z,1.75
2023-05-18T03:07:17.446Z,2.00
2023-05-18T03:09:45.676Z,1.75
2023-05-18T03:12:15.145Z,1.75
2023-05-18T03:14:43.064Z,2.00
2023-05-18T03:17:11.288Z,2.75
2023-05-18T03:19:39.601Z,2.25
2023-05-18T03:22:07.561Z,2.00
2023-05-18T03:24:40.755Z,2.25
2023-05-18T03:27:08.851Z,2.25
2023-05-18T03:29:38.472Z,2.75
2023-05-18T03:32:07.052Z,2.25
2023-05-18T03:34:35.159Z,3.00
2023-05-18T03:37:03.168Z,2.75
2023-05-18T03:39:31.460Z,2.25
2023-05-18T03:41:59.406Z,2.75
2023-05-18T03:44:27.429Z,2.25
2023-05-18T03:46:56.800Z,2.75
2023-05-18T03:49:24.994Z,3.75
2023-05-18T03:51:54.366Z,2.75
2023-05-18T03:54:22.404Z,3.25
2023-05-18T03:56:50.463Z,2.50
2023-05-18T03:59:18.710Z,2.75
2023-05-18T04:01:46.716Z,2.75
2023-05-18T04:04:23.634Z,2.00
2023-05-18T04:06:52.596Z,1.75
2023-05-18T04:09:23.832Z,2.75
2023-05-18T04:11:51.906Z,1.75
2023-05-18T04:14:21.017Z,2.50
2023-05-18T04:16:49.033Z,2.25
2023-05-18T04:19:19.097Z,2.75
2023-05-18T04:21:47.508Z,2.75
2023-05-18T04:24:16.490Z,3.00
2023-05-18T04:26:44.493Z,2.50
2023-05-18T04:29:13.636Z,2.75
2023-05-18T04:31:44.683Z,2.25
2023-05-18T04:34:13.354Z,2.75
2023-05-18T04:36:44.385Z,2.75
2023-05-18T04:39:12.637Z,2.50
2023-05-18T04:41:42.298Z,2.25
2023-05-18T04:44:10.615Z,2.25
2023-05-18T04:46:40.788Z,2.00
2023-05-18T04:49:09.896Z,2.75
2023-05-18T04:51:38.175Z,2.75
2023-05-18T04:54:09.082Z,3.75
2023-05-18T04:56:37.169Z,3.25
2023-05-18T04:59:05.396Z,2.75
2023-05-18T05:01:33.460Z,2.75
2023-05-18T05:04:01.491Z,2.75
2023-05-18T05:06:29.393Z,2.75
2023-05-18T05:08:57.613Z,3.00
2023-05-18T05:11:27.001Z,2.75
2023-05-18T05:13:54.960Z,3.25
2023-05-18T05:16:22.945Z,2.50
2023-05-18T05:18:51.332Z,2.25
2023-05-18T05:21:19.287Z,2.75
2023-05-18T05:23:47.220Z,2.75
2023-05-18T05:26:15.193Z,3.50
2023-05-18T05:28:44.834Z,2.75
2023-05-18T05:31:12.899Z,2.75
2023-05-18T05:33:40.949Z,2.75
2023-05-18T05:36:09.816Z,2.75
2023-05-18T05:38:38.060Z,3.00
2023-05-18T05:41:06.166Z,3.00
2023-05-18T05:43:34.078Z,2.75
2023-05-18T05:46:03.619Z,2.75
2023-05-18T05:48:32.041Z,2.75
2023-05-18T05:51:00.010Z,2.75
2023-05-18T05:53:29.677Z,2.75
2023-05-18T05:55:57.775Z,3.00
2023-05-18T05:58:26.003Z,3.00
2023-05-18T06:00:53.962Z,2.75
2023-05-18T06:03:23.521Z,2.75
2023-05-18T06:05:51.583Z,2.75
2023-05-18T06:08:19.874Z,2.75
2023-05-18T06:10:47.889Z,2.00
2023-05-18T06:13:15.856Z,2.00
2023-05-18T06:15:43.848Z,2.50
2023-05-18T06:18:13.554Z,1.75
2023-05-18T06:20:43.185Z,3.00
2023-05-18T06:23:11.123Z,2.75
2023-05-18T06:25:39.184Z,2.75
2023-05-18T06:28:07.424Z,2.75
2023-05-18T06:30:35.378Z,2.00
2023-05-18T06:33:04.477Z,2.75
2023-05-18T06:38:09.245Z,1.75
2023-05-18T06:40:37.380Z,2.75
2023-05-18T06:43:05.326Z,2.75
2023-05-18T06:45:36.171Z,2.00
2023-05-18T06:48:05.534Z,2.50
2023-05-18T06:50:33.480Z,2.00
2023-05-18T06:53:02.576Z,2.00
2023-05-18T06:55:32.196Z,2.75
2023-05-18T06:58:00.348Z,2.75
2023-05-18T07:00:28.325Z,2.75
2023-05-18T07:02:56.323Z,2.75
2023-05-18T07:05:25.230Z,2.75
2023-05-18T07:07:53.317Z,3.50
2023-05-18T07:10:22.635Z,2.75
2023-05-18T07:12:52.010Z,3.00
2023-05-18T07:15:19.982Z,2.75
2023-05-18T07:17:48.024Z,2.75
2023-05-18T07:20:16.049Z,3.50
2023-05-18T07:22:43.990Z,2.75
2023-05-18T07:25:12.268Z,3.75
2023-05-18T07:27:40.252Z,3.00
2023-05-18T07:30:13.425Z,2.75
2023-05-18T07:32:45.206Z,2.75
2023-05-18T07:35:13.517Z,2.75
2023-05-18T07:37:41.511Z,3.00
2023-05-18T07:40:10.692Z,3.75
2023-05-18T07:42:39.649Z,3.00
2023-05-18T07:45:12.665Z,3.75
2023-05-18T07:47:40.730Z,3.75
2023-05-18T07:50:09.806Z,3.75
2023-05-18T07:52:37.877Z,3.00
2023-05-18T07:55:07.030Z,2.75
2023-05-18T07:57:36.001Z,3.75
2023-05-18T08:02:52.221Z,4.00
2023-05-18T08:05:22.489Z,2.75
2023-05-18T08:07:50.497Z,3.50
2023-05-18T08:10:18.783Z,3.00
2023-05-18T08:12:46.789Z,3.50
2023-05-18T08:15:14.729Z,2.75
2023-05-18T08:17:42.782Z,3.75
2023-05-18T08:20:13.756Z,3.75
2023-05-18T08:22:41.768Z,3.75
2023-05-18T08:25:11.602Z,3.75
2023-05-18T08:27:39.553Z,3.50
2023-05-18T08:30:11.186Z,3.25
2023-05-18T08:32:39.247Z,2.75
2023-05-18T08:35:08.399Z,2.75
2023-05-18T08:37:37.744Z,3.75
2023-05-18T08:40:08.118Z,2.75
2023-05-18T08:42:49.526Z,2.75
2023-05-18T08:45:22.357Z,3.75
2023-05-18T08:47:50.957Z,2.00
2023-05-18T08:50:21.112Z,2.75
2023-05-18T08:52:56.598Z,3.00
2023-05-18T08:55:24.700Z,3.75
2023-05-18T08:57:56.242Z,2.25
2023-05-18T09:00:24.923Z,2.75
2023-05-18T09:02:53.072Z,2.75
2023-05-18T09:05:21.246Z,2.00
2023-05-18T09:07:49.342Z,2.75
2023-05-18T09:10:18.657Z,2.75
2023-05-18T09:12:47.049Z,2.00
2023-05-18T09:15:15.862Z,2.75
2023-05-18T09:17:44.045Z,2.75
2023-05-18T09:20:12.538Z,2.75
2023-05-18T09:22:41.312Z,2.75
2023-05-18T09:25:10.119Z,2.75
2023-05-18T09:27:39.580Z,2.75
2023-05-18T09:30:11.669Z,2.75
2023-05-18T09:32:39.721Z,3.00
2023-05-18T09:37:48.283Z,2.75
2023-05-18T09:40:16.706Z,2.75
2023-05-18T09:42:46.189Z,2.00
2023-05-18T09:45:18.947Z,2.75
2023-05-18T09:47:47.089Z,2.25
2023-05-18T09:50:15.072Z,2.75
2023-05-18T09:52:43.697Z,2.75
2023-05-18T09:55:12.473Z,2.75
2023-05-18T09:57:41.864Z,2.25
2023-05-18T10:00:19.792Z,2.25
2023-05-18T10:02:52.808Z,2.50
2023-05-18T10:05:21.304Z,2.25
2023-05-18T10:07:49.737Z,2.75
2023-05-18T10:10:18.698Z,2.50
2023-05-18T10:12:46.675Z,2.50
2023-05-18T10:15:16.213Z,2.00
2023-05-18T10:17:44.709Z,1.75
2023-05-18T10:20:16.580Z,1.75
2023-05-18T10:22:44.762Z,2.75
2023-05-18T10:25:12.778Z,2.25
2023-05-18T10:27:42.323Z,2.25
2023-05-18T10:30:13.322Z,1.75
2023-05-18T10:32:41.280Z,2.75
2023-05-18T10:35:09.995Z,2.75
2023-05-18T10:37:41.424Z,2.50
2023-05-18T10:40:10.128Z,2.25
2023-05-18T10:42:38.110Z,1.75
2023-05-18T10:45:08.770Z,1.75
2023-05-18T10:47:39.709Z,2.25
2023-05-18T10:50:08.797Z,1.75
2023-05-18T10:52:39.115Z,2.75
2023-05-18T10:55:07.919Z,2.75
2023-05-18T10:57:38.123Z,1.75
2023-05-18T11:02:51.631Z,1.75
2023-05-18T11:05:24.879Z,1.75
2023-05-18T11:08:00.885Z,2.25
2023-05-18T11:10:34.794Z,1.75
2023-05-18T11:13:03.072Z,2.75
2023-05-18T11:16:06.416Z,2.00
2023-05-18T11:18:43.661Z,2.50
2023-05-18T11:22:02.074Z,2.50
2023-05-18T11:24:35.583Z,1.75
2023-05-18T11:27:13.484Z,1.75
2023-05-18T11:29:42.401Z,1.75
2023-05-18T11:32:29.902Z,2.00
2023-05-18T11:34:58.830Z,2.75
2023-05-18T11:37:48.629Z,1.75
2023-05-18T11:40:47.925Z,1.75
2023-05-18T11:43:23.954Z,2.50
2023-05-18T11:45:56.701Z,2.25
2023-05-18T11:48:27.333Z,2.75
2023-05-18T11:50:55.776Z,2.75
2023-05-18T11:53:24.931Z,2.25
2023-05-18T11:55:54.835Z,2.00
2023-05-18T11:58:22.876Z,2.00
2023-05-18T12:00:50.780Z,2.00
2023-05-18T12:03:19.155Z,2.00
2023-05-18T12:05:49.416Z,1.75
2023-05-18T12:08:19.040Z,2.50
2023-05-18T12:10:47.361Z,2.75
2023-05-18T12:13:17.913Z,2.50
2023-05-18T12:15:45.891Z,2.75
2023-05-18T12:18:14.349Z,2.00
2023-05-18T12:20:42.504Z,2.75
2023-05-18T12:23:10.735Z,2.00
2023-05-18T12:25:38.673Z,2.00
2023-05-18T12:28:07.972Z,1.75
2023-05-18T12:30:38.447Z,1.50
2023-05-18T12:33:07.470Z,2.50
2023-05-18T12:35:35.616Z,2.00
2023-05-18T12:38:03.770Z,2.00
2023-05-18T12:40:38.862Z,2.25
2023-05-18T12:43:06.832Z,2.00
2023-05-18T12:45:35.198Z,2.50
2023-05-18T12:48:07.793Z,1.50
2023-05-18T12:50:37.220Z,2.50
2023-05-18T12:53:05.655Z,2.50
2023-05-18T12:55:34.759Z,2.00
2023-05-18T12:58:03.459Z,1.50
2023-05-18T13:03:09.833Z,2.00
2023-05-18T13:05:41.929Z,2.75
2023-05-18T13:08:09.965Z,2.00
2023-05-18T13:10:38.034Z,1.75
2023-05-18T13:13:05.975Z,1.50
2023-05-18T13:15:35.091Z,1.50
2023-05-18T13:18:04.310Z,1.50
2023-05-18T13:20:36.484Z,2.00
2023-05-18T13:23:05.454Z,1.75
2023-05-18T13:25:33.672Z,1.50
2023-05-18T13:28:02.295Z,2.25
2023-05-18T13:30:30.457Z,2.00
2023-05-18T13:32:58.678Z,1.50
2023-05-18T13:35:26.703Z,1.50
2023-05-18T13:37:56.009Z,1.50
2023-05-18T13:40:25.596Z,2.00
2023-05-18T13:42:53.757Z,2.00
2023-05-18T13:45:22.611Z,1.50
2023-05-18T13:47:51.852Z,1.50
2023-05-18T13:50:20.027Z,1.50
2023-05-18T13:52:48.306Z,1.50
2023-05-18T13:55:17.617Z,1.50
2023-05-18T13:57:46.141Z,1.50
2023-05-18T14:00:16.934Z,1.75
2023-05-18T14:02:46.232Z,1.50
2023-05-18T14:05:14.489Z,1.50
2023-05-18T14:07:43.029Z,2.50
2023-05-18T14:10:12.114Z,1.50
2023-05-18T14:12:42.536Z,2.50
2023-05-18T14:15:11.491Z,1.50
2023-05-18T14:17:39.594Z,1.50
2023-05-18T14:20:09.121Z,2.00
2023-05-18T14:22:37.096Z,2.25
2023-05-18T14:25:05.487Z,1.50
2023-05-18T14:27:33.406Z,2.50
2023-05-18T14:30:03.052Z,1.50
2023-05-18T14:32:31.237Z,1.50
2023-05-18T14:34:59.283Z,1.50
2023-05-18T14:37:27.238Z,1.50
2023-05-18T14:39:55.644Z,1.50
2023-05-18T14:42:23.585Z,1.50
2023-05-18T14:44:51.638Z,1.50
2023-05-18T14:47:22.302Z,1.50
2023-05-18T14:49:50.558Z,2.25
2023-05-18T14:52:18.773Z,1.50
2023-05-18T14:54:47.858Z,1.50
2023-05-18T14:57:15.833Z,1.75
2023-05-18T14:59:44.286Z,1.50
2023-05-18T15:02:12.348Z,1.50
2023-05-18T15:04:41.757Z,1.50
2023-05-18T15:07:09.683Z,1.50
2023-05-18T15:09:37.595Z,2.25
2023-05-18T15:12:06.353Z,1.50
2023-05-18T15:14:34.307Z,2.25
2023-05-18T15:17:02.247Z,1.50
2023-05-18T15:19:30.377Z,2.25
2023-05-18T15:21:59.760Z,1.50
2023-05-18T15:24:27.746Z,2.25
2023-05-18T15:26:55.719Z,2.25
2023-05-18T15:29:23.798Z,2.50
2023-05-18T15:31:54.265Z,1.50
2023-05-18T15:34:22.269Z,1.50
2023-05-18T15:36:50.257Z,1.75
2023-05-18T15:39:19.608Z,1.50
2023-05-18T15:41:47.558Z,1.50
2023-05-18T15:44:15.615Z,2.00
2023-05-18T15:46:43.718Z,1.50
2023-05-18T15:49:11.661Z,1.50
2023-05-18T15:51:39.661Z,2.00
2023-05-18T15:54:07.649Z,1.50
2023-05-18T15:56:37.088Z,1.50
2023-05-18T15:59:06.892Z,2.50
2023-05-18T16:01:34.987Z,2.25
2023-05-18T16:04:03.018Z,1.50
2023-05-18T16:06:31.034Z,2.00
2023-05-18T16:08:59.219Z,1.75
2023-05-18T16:11:27.198Z,1.50
2023-05-18T16:13:57.198Z,1.50
2023-05-18T16:16:25.517Z,1.50
2023-05-18T16:18:53.567Z,2.25
2023-05-18T16:21:21.524Z,1.75
2023-05-18T16:23:49.508Z,1.50
2023-05-18T16:26:17.448Z,1.50
2023-05-18T16:28:46.473Z,2.25
2023-05-18T16:31:15.879Z,2.50
2023-05-18T16:33:43.907Z,2.00
2023-05-18T16:36:11.832Z,1.25
2023-05-18T16:38:39.801Z,2.50
2023-05-18T16:41:07.731Z,1.00
2023-05-18T16:43:36.563Z,2.25
2023-05-18T16:46:04.624Z,1.75
2023-05-18T16:48:34.328Z,1.50
2023-05-18T16:51:06.628Z,2.50
2023-05-18T16:53:34.594Z,2.50
2023-05-18T16:56:02.819Z,1.75
2023-05-18T16:58:30.791Z,1.50
2023-05-18T17:00:58.862Z,2.25
2023-05-18T17:03:27.626Z,2.50
2023-05-18T17:05:57.085Z,2.50
2023-05-18T17:08:25.305Z,3.25
2023-05-18T17:10:53.226Z,2.50
2023-05-18T17:13:21.380Z,2.25
2023-05-18T17:15:49.362Z,2.00
2023-05-18T17:18:17.322Z,1.50
2023-05-18T17:20:45.295Z,2.50
2023-05-18T17:23:18.594Z,1.50
2023-05-18T17:25:48.379Z,1.50
2023-05-18T17:28:18.907Z,2.00
2023-05-18T17:30:46.936Z,2.50
2023-05-18T17:33:14.974Z,2.50
2023-05-18T17:35:43.049Z,1.50
2023-05-18T17:38:11.055Z,1.50
2023-05-18T17:40:40.380Z,2.25
2023-05-18T17:43:08.620Z,3.25
2023-05-18T17:45:36.606Z,2.25
2023-05-18T17:48:04.808Z,1.00
2023-05-18T17:50:32.978Z,1.75
2023-05-18T17:53:01.433Z,2.25
2023-05-18T17:55:29.382Z,2.50
2023-05-18T17:58:01.147Z,2.00
2023-05-18T18:00:29.292Z,2.00
2023-05-18T18:02:57.478Z,2.50
2023-05-18T18:05:25.423Z,2.50
2023-05-18T18:07:54.197Z,2.00
2023-05-18T18:10:22.281Z,1.50
2023-05-18T18:12:50.245Z,2.50
2023-05-18T18:15:20.096Z,2.50
2023-05-18T18:17:48.199Z,2.50
2023-05-18T18:20:16.287Z,2.25
2023-05-18T18:22:44.603Z,2.50
2023-05-18T18:25:12.546Z,2.50
2023-05-18T18:27:40.532Z,1.50
2023-05-18T18:30:12.436Z,2.00
2023-05-18T18:32:41.791Z,1.75
2023-05-18T18:35:10.350Z,2.50
2023-05-18T18:37:38.534Z,2.50
2023-05-18T18:40:07.992Z,2.50
2023-05-18T18:42:35.949Z,2.00
2023-05-18T18:45:03.974Z,1.50
2023-05-18T18:47:31.951Z,2.25
2023-05-18T18:50:01.281Z,2.25
2023-05-18T18:52:29.229Z,1.75
2023-05-18T18:54:58.345Z,2.25
2023-05-18T18:57:26.351Z,2.50
2023-05-18T18:59:54.326Z,2.50
2023-05-18T19:02:23.675Z,2.50
2023-05-18T19:04:52.764Z,2.50
2023-05-18T19:07:22.171Z,2.50
2023-05-18T19:09:50.513Z,2.50
2023-05-18T19:12:18.504Z,1.75
2023-05-18T19:14:46.576Z,2.75
2023-05-18T19:17:14.558Z,1.75
2023-05-18T19:19:42.574Z,3.50
2023-05-18T19:22:10.600Z,2.50
2023-05-18T19:24:40.410Z,3.25
2023-05-18T19:27:08.411Z,2.50
2023-05-18T19:29:37.475Z,3.25
2023-05-18T19:32:06.542Z,3.00
2023-05-18T19:34:34.836Z,2.75
2023-05-18T19:37:02.773Z,2.50
2023-05-18T19:39:30.695Z,2.75
2023-05-18T19:42:00.000Z,3.50
2023-05-18T19:44:28.244Z,3.25
2023-05-18T19:46:56.169Z,2.50
2023-05-18T19:49:24.104Z,2.50
2023-05-18T19:51:52.047Z,2.50
2023-05-18T19:54:20.055Z,3.00
2023-05-18T19:56:48.183Z,2.50
2023-05-18T19:59:17.478Z,3.00
2023-05-18T20:01:46.497Z,2.50
2023-05-18T20:04:14.650Z,2.50
2023-05-18T20:06:42.634Z,2.50
2023-05-18T20:09:10.743Z,2.75
2023-05-18T20:11:38.746Z,3.50
2023-05-18T20:14:07.020Z,2.75
2023-05-18T20:16:39.311Z,2.50
2023-05-18T20:19:07.613Z,2.50
2023-05-18T20:21:35.883Z,3.25
2023-05-18T20:24:04.250Z,2.25
2023-05-18T20:26:32.335Z,3.50
2023-05-18T20:29:00.397Z,3.50
2023-05-18T20:31:28.384Z,3.50
2023-05-18T20:33:58.084Z,3.50
2023-05-18T20:36:26.642Z,3.50
2023-05-18T20:38:54.654Z,3.50
2023-05-18T20:41:23.311Z,4.25
2023-05-18T20:43:51.372Z,3.50
2023-05-18T20:46:24.936Z,4.00
2023-05-18T20:48:55.292Z,2.50
2023-05-18T20:51:24.872Z,3.25
2023-05-18T20:53:53.082Z,3.50
2023-05-18T20:56:21.907Z,2.50
2023-05-18T20:58:50.399Z,3.50
2023-05-18T21:01:18.644Z,3.25
2023-05-18T21:03:47.827Z,3.00
2023-05-18T21:06:15.983Z,3.25
2023-05-18T21:08:45.725Z,3.00
2023-05-18T21:11:13.717Z,3.50
2023-05-18T21:13:42.115Z,2.50
2023-05-18T21:16:10.726Z,4.25
2023-05-18T21:18:38.684Z,3.00
2023-05-18T21:21:06.699Z,3.50
2023-05-18T21:23:35.378Z,3.50
2023-05-18T21:26:04.745Z,4.00
2023-05-18T21:28:32.846Z,3.50
2023-05-18T21:31:01.225Z,4.25
2023-05-18T21:33:29.849Z,4.25
2023-05-18T21:35:58.710Z,4.50
2023-05-18T21:38:26.798Z,4.50
2023-05-18T21:40:56.227Z,4.50
2023-05-18T21:43:25.901Z,5.50
2023-05-18T21:45:53.887Z,4.50
2023-05-18T21:48:21.900Z,4.25
2023-05-18T21:50:49.907Z,5.50
2023-05-18T21:53:18.180Z,5.50
2023-05-18T21:55:46.237Z,5.50
2023-05-18T21:58:14.200Z,6.00
2023-05-18T22:00:43.538Z,5.00
2023-05-18T22:03:11.754Z,4.50
2023-05-18T22:05:41.581Z,5.50
2023-05-18T22:08:09.555Z,4.50
2023-05-18T22:10:37.512Z,6.25
2023-05-18T22:13:05.784Z,5.25
2023-05-18T22:15:35.976Z,4.75
2023-05-18T22:18:05.674Z,4.25
2023-05-18T22:20:34.072Z,5.25
2023-05-18T22:23:03.325Z,5.50
2023-05-18T22:25:31.335Z,4.75
2023-05-18T22:27:59.265Z,5.50
2023-05-18T22:30:28.400Z,5.00
2023-05-18T22:32:58.508Z,5.00
2023-05-18T22:37:56.391Z,4.00
2023-05-18T22:40:24.360Z,4.50
2023-05-18T22:42:55.007Z,5.25
2023-05-18T22:45:23.315Z,4.50
2023-05-18T22:47:52.801Z,4.50
2023-05-18T22:50:21.222Z,6.50
2023-05-18T22:52:49.176Z,6.50
2023-05-18T22:55:19.053Z,7.00
2023-05-18T22:57:47.003Z,7.50
2023-05-18T23:00:15.712Z,7.25
2023-05-18T23:02:43.769Z,8.75
2023-05-18T23:05:12.080Z,10.50
2023-05-18T23:07:41.871Z,8.75
2023-05-18T23:10:11.200Z,9.50
2023-05-18T23:12:41.634Z,11.00
2023-05-18T23:15:12.997Z,10.50
2023-05-18T23:17:42.331Z,10.50
2023-05-18T23:20:12.157Z,9.25
2023-05-18T23:22:40.165Z,8.50
2023-05-18T23:25:09.938Z,10.00
2023-05-18T23:27:37.861Z,9.00
2023-05-18T23:30:11.036Z,10.50
2023-05-18T23:32:39.495Z,9.00
2023-05-18T23:35:08.918Z,10.50
2023-05-18T23:37:37.189Z,10.50
2023-05-18T23:40:06.021Z,12.50
2023-05-18T23:42:34.651Z,15.00
2023-05-18T23:45:03.517Z,14.25
2023-05-18T23:47:33.355Z,14.00
2023-05-18T23:50:01.849Z,17.50
2023-05-18T23:52:29.857Z,15.25
2023-05-18T23:54:58.941Z,16.00
2023-05-18T23:57:27.321Z,15.00
2023-05-18T23:59:55.348Z,14.50
